Список аэропортов
Фактическая погода:

24 мая, 16:00
Температура: +16°C (+14.8*)
Ветер: западный 6 м/с
Давление: *754 мм
неб. облачность
кучево-дождевые 1590 м
Время (МСК)Темп. СВетерВлажностьДавлениеОблачностьОсадки
15:00+12З, 4 м/с86%1006 гПамалооблачносл. дождь
16:00+11СЗ, 5 м/с78%1007 гПамалооблачносл. дождь
17:00+11СЗ, 5 м/с61%1009 гПас прояснениямисл. дождь
18:00+10С, 5 м/с59%1010 гПамалооблачно
19:00+8С, 4 м/с59%1012 гПаясно
20:00+6С, 3 м/с59%1013 гПаясно
21:00+5С, 2 м/с62%1014 гПаясно
22:00+3С, 1 м/с78%1015 гПаясно
23:00+1СЗ, 1 м/с93%1015 гПаясно
25 мая
00:00-0З, 1 м/с93%1016 гПаясно
01:00-1ЮЗ, 1 м/с92%1016 гПамалооблачно
02:00-1ЮЗ, 1 м/с95%1017 гПаясно
03:00-2ЮЗ, 1 м/с96%1018 гПамалооблачно
04:00-1ЮЗ, 1 м/с95%1018 гПамалооблачно
05:00+2ЮЗ, 2 м/с88%1019 гПаясно
06:00+6ЮЗ, 2 м/с64%1019 гПаясно
07:00+8З, 2 м/с49%1019 гПаясно
08:00+10З, 2 м/с43%1019 гПаясно
09:00+12З, 2 м/с38%1019 гПамалооблачно
10:00+13З, 2 м/с35%1019 гПаясно
11:00+14З, 2 м/с33%1019 гПаясно
12:00+15З, 2 м/с31%1018 гПаясно
13:00+15З, 2 м/с30%1018 гПаясно
14:00+16З, 2 м/с30%1018 гПаясно
15:00+16З, 2 м/с30%1018 гПаясно
16:00+16ЮЗ, 2 м/с30%1017 гПаясно
17:00+16ЮЗ, 2 м/с32%1017 гПаясно
18:00+15Ю, 2 м/с36%1017 гПаясно
19:00+13Ю, 2 м/с48%1017 гПаясно
20:00+10ЮВ, 1 м/с62%1017 гПаясно
21:00+8ЮВ, 2 м/с68%1017 гПаясно
22:00+7ЮВ, 2 м/с66%1017 гПас прояснениями
23:00+7ЮВ, 2 м/с63%1016 гПас прояснениями
26 мая
00:00+8ЮВ, 3 м/с55%1015 гПаоблачно
01:00+9ЮВ, 3 м/с48%1014 гПаоблачно
02:00+10ЮВ, 4 м/с52%1013 гПаоблачносл. дождь
03:00+7ЮВ, 3 м/с85%1013 гПаоблачнодождь
04:00+8ЮВ, 4 м/с86%1011 гПаоблачносл. дождь
05:00+9Ю, 3 м/с80%1011 гПаоблачно
06:00+14Ю, 3 м/с60%1010 гПаоблачно
07:00+18ЮЗ, 4 м/с48%1009 гПас прояснениямисл. дождь
08:00+20ЮЗ, 5 м/с45%1009 гПас прояснениями
09:00+22ЮЗ, 5 м/с43%1009 гПас прояснениями
10:00+24ЮЗ, 6 м/с40%1008 гПас прояснениями
11:00+25ЮЗ, 6 м/с36%1008 гПамалооблачно
12:00+25ЮЗ, 7 м/с36%1008 гПас прояснениями
13:00+26ЮЗ, 7 м/с33%1007 гПамалооблачно
14:00+26ЮЗ, 6 м/с30%1007 гПаясно
15:00+26ЮЗ, 6 м/с29%1007 гПамалооблачно